Latest Coastal Weather Observations for Yeppoon

IDQ60701

Issued at 2:22 am EST Friday 5 March 2021 (issued every 10 minutes, with the page automatically refreshed every 10 minutes)

About coastal observations | Map of coastal stations | Coastal observations for QLD | Marine services | Other Formats
Station Details ID: 033294 Name: YEPPOON THE ESPLANADE Lat: -23.14 Lon: 150.75 Height: 5.5 m
Data from the previous 72 hours. | See also: Recent months at Yeppoon
Date/Time
EST
Wind Sea
Height
m
Swell Vis
km
Cloud Weather Temp
°C
Press
MSL
hPa
Rain since
9am
mm
Dir  Spd
kts
Gust
kts
Height
m
Period
s
Dir
05/02:00am ESE 15 24 - - - - - - - 25.8 1006.5 0.2
05/01:30am ESE 15 21 - - - - - - - 25.9 1006.8 0.2
05/01:00am ESE 14 22 - - - - - - - 25.9 1007.1 0.2
05/12:30am ESE 15 23 - - - - - - - 26.0 1007.3 0.2
05/12:00am ESE 16 25 - - - - - - - 26.0 1007.6 0.2
 
Date/Time
EST
Wind Sea
Height
m
Swell Vis
km
Cloud Weather Temp
°C
Press
MSL
hPa
Rain since
9am
mm
Dir  Spd
kts
Gust
kts
Height
m
Period
s
Dir
04/11:30pm ESE 15 25 - - - - - - - 26.2 1007.8 0.2
04/11:08pm ESE 15 25 - - - - - - - 26.2 1007.8 0.2
04/11:00pm ESE 17 25 - - - - - - - 26.3 1007.9 0.2
04/10:30pm ESE 15 25 - - - - - - - 26.2 1007.9 0.2
04/10:00pm ESE 20 27 - - - - - - - 26.4 1008.0 0.2
04/09:30pm ESE 21 27 - - - - - - - 26.5 1008.0 0.2
04/09:23pm ESE 19 29 - - - - - - - 26.5 1007.9 0.2
04/09:00pm ESE 17 23 - - - - - - - 26.5 1008.0 0.2
04/08:30pm ESE 18 26 - - - - - - - 26.5 1007.8 0.2
04/08:00pm ESE 18 26 - - - - - - - 26.6 1007.6 0.2
04/07:30pm ESE 21 28 - - - - - - - 26.5 1007.1 0.2
04/07:10pm ESE 17 27 - - - - - - - 26.6 1007.1 0.2
04/07:00pm ESE 17 24 - - - - - - - 26.6 1007.1 0.2
04/06:30pm ESE 17 25 - - - - - - - 26.6 1006.8 0.2
04/06:09pm ESE 17 27 - - - - - - - 26.8 1006.6 0.2
04/06:00pm ESE 17 24 - - - - - - - 26.8 1006.7 0.2
04/05:30pm ESE 15 25 - - - - - - - 26.8 1006.6 0.2
04/05:00pm ESE 14 23 - - - - - - - 27.0 1006.4 0.2
04/04:53pm ESE 15 25 - - - - - - - 27.1 1006.3 0.2
04/04:30pm ESE 15 22 - - - - - - - 27.4 1006.1 0.2
04/04:00pm SE 15 24 - - - - - - - 27.5 1006.2 0.2
04/03:46pm ESE 15 25 - - - - - - - 27.5 1006.1 0.2
04/03:30pm SE 14 19 - - - - - - - 27.5 1006.1 0.2
04/03:00pm SE 15 23 - - - - - - - 27.7 1006.3 0.2
04/02:30pm ESE 15 22 - - - - - - - 27.7 1006.4 0.2
04/02:00pm SE 16 24 - - - - - - - 27.6 1006.6 0.2
04/01:30pm ESE 15 23 - - - - - - - 27.8 1006.8 0.2
04/01:00pm ESE 15 21 - - - - - - - 27.7 1007.1 0.2
04/12:30pm ESE 17 25 - - - - - - - 27.5 1007.4 0.2
04/12:00pm ESE 17 23 - - - - - - - 27.5 1007.4 0.2
04/11:30am ESE 17 25 - - - - - - - 27.6 1007.7 0.2
04/11:00am ESE 19 25 - - - - - - - 27.3 1007.8 0.2
04/10:30am ESE 16 23 - - - - - - - 26.9 1008.1 0.2
04/10:00am ESE 16 27 - - - - - - - 26.7 1008.3 0.2
04/09:58am ESE 16 27 - - - - - - - 26.5 1008.3 0.2
04/09:30am SE 14 22 - - - - - - - 25.7 1008.3 0.0
04/09:00am SE 10 17 - - - - - - Recent precip. 24.4 1008.2 17.2
04/08:30am ESE 15 27 - - - - - - - 24.2 1007.9 17.0
04/08:00am SE 12 27 - - - - - - - 23.7 1007.8 14.6
04/07:56am SE 10 27 - - - - - - - 23.8 1007.7 14.6
04/07:55am SE 10 27 - - - - - - - 24.2 1007.6 14.6
04/07:30am SSE 10 14 - - - - - - - 23.5 1007.4 13.8
04/07:00am S 10 15 - - - - - - - 23.3 1007.1 13.8
04/06:30am SSE 10 16 - - - - - - - 23.4 1007.0 13.8
04/06:00am SSE 11 15 - - - - - - Rain 23.1 1006.8 13.2
04/05:30am S 9 15 - - - - - - - 23.3 1006.7 5.0
04/05:00am S 10 15 - - - - - - - 23.9 1006.1 3.4
04/04:30am SSE 8 11 - - - - - - - 26.0 1005.9 0.0
04/04:00am ESE 12 17 - - - - - - - 27.3 1005.6 0.0
04/03:30am ESE 13 17 - - - - - - - 27.1 1005.6 0.0
04/03:00am E 16 18 - - - - - - - 27.2 1005.6 0.0
04/02:30am E 13 16 - - - - - - - 27.4 1005.8 0.0
04/02:00am E 15 19 - - - - - - - 27.1 1005.8 0.0
04/01:30am E 15 19 - - - - - - - 27.2 1006.1 0.0
04/01:00am E 16 19 - - - - - - - 27.3 1006.5 0.0
04/12:30am ESE 15 18 - - - - - - - 27.3 1006.6 0.0
04/12:00am ESE 16 20 - - - - - - - 27.3 1006.9 0.0
 
Date/Time
EST
Wind Sea
Height
m
Swell Vis
km
Cloud Weather Temp
°C
Press
MSL
hPa
Rain since
9am
mm
Dir  Spd
kts
Gust
kts
Height
m
Period
s
Dir
03/11:30pm ESE 15 19 - - - - - - - 27.4 1007.1 0.0
03/11:00pm ESE 15 18 - - - - - - - 27.3 1007.4 0.0
03/10:30pm ESE 14 18 - - - - - - - 27.4 1007.4 0.0
03/10:00pm E 14 18 - - - - - - - 27.3 1007.5 0.0
03/09:30pm ESE 15 18 - - - - - - - 27.4 1007.5 0.0
03/09:00pm E 14 16 - - - - - - - 27.3 1007.3 0.0
03/08:30pm E 14 19 - - - - - - - 27.5 1007.2 0.0
03/08:00pm E 15 19 - - - - - - - 27.4 1006.9 0.0
03/07:30pm E 16 19 - - - - - - - 27.4 1007.0 0.0
03/07:00pm E 15 18 - - - - - - - 27.4 1006.8 0.0
03/06:30pm ENE 15 17 - - - - - - - 27.6 1006.4 0.0
03/06:00pm E 15 17 - - - - - - - 27.4 1006.1 0.0
03/05:30pm E 15 18 - - - - - - - 27.9 1006.0 0.0
03/05:00pm E 15 17 - - - - - - - 28.1 1005.8 0.0
03/04:30pm ENE 15 19 - - - - - - - 28.0 1005.6 0.0
03/04:00pm ENE 14 17 - - - - - - - 28.2 1005.6 0.0
03/03:30pm ENE 14 17 - - - - - - - 28.4 1005.6 0.0
03/03:00pm ESE 13 16 - - - - - - - 29.4 1005.9 0.0
03/02:30pm E 14 17 - - - - - - - 29.1 1006.1 0.0
03/02:00pm ESE 14 16 - - - - - - - 29.4 1006.7 0.0
03/01:30pm ESE 14 17 - - - - - - - 29.1 1007.2 0.0
03/01:00pm ESE 11 15 - - - - - - - 29.1 1007.4 0.0
03/12:30pm ESE 11 15 - - - - - - - 29.7 1008.0 0.0
03/12:00pm ESE 14 17 - - - - - - - 29.2 1008.2 0.0
03/11:30am ESE 14 18 - - - - - - - 28.7 1008.6 0.0
03/11:00am ESE 13 17 - - - - - - - 29.1 1008.8 0.0
03/10:30am SE 12 19 - - - - - - - 29.0 1009.0 0.0
03/10:00am SE 9 14 - - - - - - - 29.0 1009.1 0.0
03/09:30am SE 9 14 - - - - - - - 29.0 1009.2 0.0
03/09:00am SSE 12 17 - - - - - - - 28.5 1009.1 -
03/08:30am SE 9 13 - - - - - - - 28.6 1009.0 -
03/08:00am SSE 9 13 - - - - - - - 27.6 1008.8 -
03/07:30am S 6 9 - - - - - - - 26.1 1008.5 -
03/07:00am SSW 7 12 - - - - - - - 25.6 1008.3 -
03/06:30am SSW 7 11 - - - - - - - 25.5 1007.9 -
03/06:00am SE 9 13 - - - - - - - 26.7 1007.8 -
03/05:30am ESE 9 14 - - - - - - - 26.8 1007.6 -
03/05:00am SE 9 13 - - - - - - - 26.8 1007.3 -
03/04:30am SE 8 13 - - - - - - - 26.8 1007.1 -
03/04:00am ESE 9 12 - - - - - - - 26.8 1006.8 -
03/03:30am SE 8 11 - - - - - - - 26.8 1006.6 -
03/03:00am ESE 10 14 - - - - - - - 26.9 1006.4 -
03/02:30am E 11 14 - - - - - - - 27.0 1006.5 -
03/02:00am E 11 15 - - - - - - - 26.9 1006.6 -
03/01:30am ESE 10 13 - - - - - - - 26.9 1006.7 -
03/01:00am ESE 11 13 - - - - - - - 26.9 1006.6 -
03/12:30am ESE 10 13 - - - - - - - 26.9 1007.0 -
03/12:00am E 12 14 - - - - - - - 27.3 1007.2 -
 
Date/Time
EST
Wind Sea
Height
m
Swell Vis
km
Cloud Weather Temp
°C
Press
MSL
hPa
Rain since
9am
mm
Dir  Spd
kts
Gust
kts
Height
m
Period
s
Dir
02/11:30pm ESE 12 15 - - - - - - - 27.0 1007.7 -
02/11:00pm E 12 15 - - - - - - - 27.1 1007.7 -
02/10:30pm ESE 11 15 - - - - - - - 27.2 1007.8 -
02/10:00pm E 12 15 - - - - - - - 27.4 1007.8 -
02/09:30pm E 12 14 - - - - - - - 27.3 1007.8 -
02/03:00pm ESE 14 19 - - - - - - - 29.5 1006.6 0.0
02/02:30pm ESE 15 19 - - - - - - - 29.3 1006.7 0.0
02/02:00pm ESE 13 18 - - - - - - - 29.4 1006.7 0.0
02/01:30pm ESE 15 20 - - - - - - - 29.7 1007.1 0.0
02/01:00pm ESE 14 18 - - - - - - - 29.5 1007.1 0.0
02/12:30pm ESE 13 18 - - - - - - - 29.2 1007.5 0.0
02/12:00pm SE 12 18 - - - - - - - 29.4 1007.7 0.0
02/11:30am ESE 11 16 - - - - - - - 29.9 1008.2 0.0
02/11:00am ESE 12 16 - - - - - - - 28.9 1008.4 0.0
02/10:30am ESE 10 14 - - - - - - - 28.7 1008.6 0.0
02/10:00am SE 9 13 - - - - - - - 28.1 1008.7 0.0
02/09:30am SSE 10 14 - - - - - - - 27.8 1008.7 0.0
02/09:00am ESE 10 15 - - - - - - - 27.9 1008.6 1.2
02/08:30am ESE 9 15 - - - - - - - 27.8 1008.4 1.2
02/08:00am ESE 10 16 - - - - - - - 27.7 1008.4 1.2
02/07:30am ESE 9 13 - - - - - - - 27.4 1008.0 1.2
02/07:00am ESE 9 13 - - - - - - - 27.3 1007.9 1.2
02/06:30am ESE 9 14 - - - - - - - 27.1 1007.5 1.2
02/06:00am SE 9 13 - - - - - - - 27.0 1007.0 1.2
02/05:30am ESE 10 14 - - - - - - - 27.0 1006.8 1.2
02/05:00am SE 9 14 - - - - - - - 27.0 1006.5 1.2
02/04:30am ESE 11 15 - - - - - - - 26.8 1006.2 1.2
02/04:00am ESE 13 17 - - - - - - - 27.0 1005.9 1.2
02/03:30am ESE 13 18 - - - - - - - 27.0 1005.8 1.2
02/03:00am ESE 12 17 - - - - - - - 27.0 1005.8 1.2
02/02:30am ESE 13 17 - - - - - - - 27.0 1005.9 1.2

Other formats

Comma delimited format used in spreadsheet applications
http://www.bom.gov.au/fwo/IDQ60701/IDQ60701.94373.axf

JavaScript Object Notation format (JSON) in row-major order
http://www.bom.gov.au/fwo/IDQ60701/IDQ60701.94373.json

Data quality

Most of these data are generated automatically and are frequently updated. Quality checks on data are not normally performed. It is possible for incorrect values to appear. Refer to information at About Latest Weather Observations and please check the disclaimer before using these data.